Lyons, Wisconsin
Current Conditions -  °F | °C
As of 11:15 PM on Thursday 30 Oct 2014 (Local Time) from KBUU Reporting Station
Light Rain Light Rain  
Wind Chill: 40°   Ceiling: 5500
Heat Index: 44°   Visibility: 10mi
Dew Point: 36°   Wind: 7mph
Humidity: 74%   Direction: 280°W
Pressure: 30.03"   Gusts: NA
Location:  42.65°N, 88.36°W
Report Text: KBUU 310415Z AUTO 28006KT 10SM -RA OVC055 07/02 A3003 RMK AO2 T00650022
Loading
Personal Weather Stations






























Interactive Weather Map
Tropical Storm Tracking
New forecast layout! Learn more

10-Day Weather Forecast

Advertisements
Track Severe Weather on mobile